Time;durP1;ratioP1;P1;durP2;ratioP2;P2;SDS_P1;SDS_P2;PMS_P1;PMS_P2;Temp;Humidity;BMP_temperature;BMP_pressure;BME280_temperature;BME280_humidity;BME280_pressure;Samples;Min_cycle;Max_cycle;Signal;HPM_P1;HPM_P2
2021/03/19 00:02:09;;;;;;;6.82;1.33;;;13.50;53.60;;;;;;4864033;29;20456;-80
2021/03/19 00:04:35;;;;;;;4.50;1.20;;;13.60;53.70;;;;;;4866522;29;20059;-80
2021/03/19 00:07:01;;;;;;;5.13;1.33;;;13.60;53.50;;;;;;4865847;29;20041;-84
2021/03/19 00:09:27;;;;;;;4.40;1.35;;;13.60;53.50;;;;;;4880355;29;20045;-82
2021/03/19 00:11:53;;;;;;;3.17;1.13;;;13.50;53.40;;;;;;4874796;29;20095;-81
2021/03/19 00:14:19;;;;;;;2.85;1.10;;;13.50;53.30;;;;;;4863157;29;20045;-81
2021/03/19 00:16:45;;;;;;;6.95;1.40;;;13.50;53.50;;;;;;4863359;29;20037;-83
2021/03/19 00:19:13;;;;;;;5.10;1.23;;;13.50;53.40;;;;;;4862583;29;20052;-82
2021/03/19 00:21:39;;;;;;;3.20;0.77;;;13.40;53.50;;;;;;4865823;29;20025;-82
2021/03/19 00:24:06;;;;;;;4.10;0.88;;;13.40;53.40;;;;;;4880309;29;20048;-81
2021/03/19 00:26:32;;;;;;;6.82;1.00;;;13.40;53.40;;;;;;4863300;29;20034;-82
2021/03/19 00:28:58;;;;;;;5.50;0.73;;;13.40;53.20;;;;;;4863024;29;20422;-80
2021/03/19 00:31:24;;;;;;;5.35;1.13;;;13.30;53.30;;;;;;4868125;29;20044;-80
2021/03/19 00:33:50;;;;;;;3.65;1.00;;;13.40;53.40;;;;;;4870183;29;20034;-82
2021/03/19 00:36:16;;;;;;;5.95;1.38;;;13.30;53.30;;;;;;4863200;29;20361;-82
2021/03/19 00:38:41;;;;;;;3.45;0.90;;;13.30;53.60;;;;;;4881375;29;20028;-81
2021/03/19 00:41:08;;;;;;;3.35;0.70;;;13.30;53.80;;;;;;4876690;29;20046;-80
2021/03/19 00:43:34;;;;;;;3.80;0.73;;;13.30;53.90;;;;;;4862223;29;20120;-82
2021/03/19 00:46:00;;;;;;;2.92;1.00;;;13.30;53.80;;;;;;4875093;29;20112;-82
2021/03/19 00:48:26;;;;;;;4.32;1.10;;;13.30;53.70;;;;;;4865043;29;20550;-82
2021/03/19 00:50:53;;;;;;;3.20;1.08;;;13.20;53.60;;;;;;4879759;29;20465;-81
2021/03/19 00:53:19;;;;;;;5.47;1.13;;;13.30;53.80;;;;;;4867763;29;20139;-82
2021/03/19 00:55:46;;;;;;;5.35;1.27;;;13.20;53.70;;;;;;4868711;29;20049;-81
2021/03/19 00:58:11;;;;;;;3.67;0.82;;;13.20;53.70;;;;;;4861654;29;20105;-81
2021/03/19 01:00:38;;;;;;;4.20;0.90;;;13.20;53.80;;;;;;4863105;29;20068;-84
2021/03/19 01:03:05;;;;;;;6.32;1.05;;;13.20;54.00;;;;;;4863919;29;20045;-82
2021/03/19 01:05:43;;;;;;;4.75;1.10;;;13.20;54.00;;;;;;4869417;29;20029;-80
2021/03/19 01:08:13;;;;;;;4.68;1.02;;;13.20;53.90;;;;;;4862867;29;20076;-83
2021/03/19 01:10:42;;;;;;;5.72;1.15;;;13.20;54.00;;;;;;4861633;29;20076;-82
2021/03/19 01:13:09;;;;;;;5.35;1.10;;;13.20;54.00;;;;;;4880212;29;20455;-81
2021/03/19 01:15:35;;;;;;;4.72;0.80;;;13.20;54.00;;;;;;4878718;29;20029;-82
2021/03/19 01:18:03;;;;;;;4.43;0.82;;;13.10;53.80;;;;;;4880414;29;20397;-82
2021/03/19 01:20:31;;;;;;;5.60;1.45;;;13.20;54.00;;;;;;4880365;29;20041;-82
2021/03/19 01:22:57;;;;;;;10.40;1.25;;;13.10;53.90;;;;;;4848121;29;20060;-81
2021/03/19 01:25:24;;;;;;;5.72;1.35;;;13.10;53.90;;;;;;4862151;29;20038;-81
2021/03/19 01:27:50;;;;;;;4.55;1.10;;;13.10;54.00;;;;;;4862595;29;20307;-80
2021/03/19 01:30:19;;;;;;;4.60;1.00;;;13.10;53.90;;;;;;4862813;29;20052;-80
2021/03/19 01:32:46;;;;;;;3.85;1.00;;;13.10;53.90;;;;;;4846649;29;20057;-82
2021/03/19 01:35:13;;;;;;;4.20;1.25;;;13.10;53.80;;;;;;4862525;29;20045;-81
2021/03/19 01:37:40;;;;;;;3.90;0.88;;;13.10;53.70;;;;;;4863157;29;20426;-81
2021/03/19 01:40:08;;;;;;;5.18;1.00;;;13.10;53.70;;;;;;4881054;29;20128;-81
2021/03/19 01:42:49;;;;;;;6.15;0.93;;;13.10;53.90;;;;;;4867564;29;20045;-80
2021/03/19 01:45:40;;;;;;;5.80;1.40;;;13.00;53.90;;;;;;4871935;29;20057;-81
2021/03/19 01:48:43;;;;;;;4.47;0.85;;;13.00;53.80;;;;;;4861708;29;20129;-82
2021/03/19 01:51:46;;;;;;;3.90;0.90;;;13.00;54.00;;;;;;4862260;29;20029;-81
2021/03/19 01:54:50;;;;;;;7.25;1.65;;;13.00;54.10;;;;;;4877768;29;20064;-81
2021/03/19 01:57:53;;;;;;;4.75;0.82;;;12.90;54.20;;;;;;4834166;29;20069;-82
2021/03/19 02:00:57;;;;;;;1.95;0.90;;;12.90;54.20;;;;;;4834344;29;20081;-80
2021/03/19 02:04:00;;;;;;;5.45;1.00;;;12.90;54.30;;;;;;4856768;29;20132;-81
2021/03/19 02:07:04;;;;;;;8.02;1.15;;;12.90;54.30;;;;;;4877049;29;20045;-80
2021/03/19 02:10:07;;;;;;;3.42;0.90;;;12.90;54.10;;;;;;4864452;29;20057;-81
2021/03/19 02:13:21;;;;;;;6.40;1.15;;;12.90;54.20;;;;;;4880507;29;20058;-83
2021/03/19 02:16:24;;;;;;;4.10;0.90;;;12.80;54.20;;;;;;4872906;29;20109;-82
2021/03/19 02:19:27;;;;;;;4.28;0.82;;;12.80;54.10;;;;;;4849516;29;20077;-81
2021/03/19 02:22:31;;;;;;;6.00;0.90;;;12.90;54.20;;;;;;4864329;29;20061;-82
2021/03/19 02:25:34;;;;;;;6.40;1.35;;;12.90;54.20;;;;;;4881799;29;20037;-82
2021/03/19 02:28:37;;;;;;;2.78;0.77;;;12.80;54.20;;;;;;4882731;29;20060;-82
2021/03/19 02:31:12;;;;;;;4.13;1.00;;;12.80;54.10;;;;;;4873550;29;20045;-81
2021/03/19 02:33:46;;;;;;;6.28;1.17;;;12.80;54.30;;;;;;4864358;29;20120;-81
2021/03/19 02:36:13;;;;;;;5.35;1.38;;;12.80;54.40;;;;;;4877945;29;20048;-81
2021/03/19 02:38:39;;;;;;;3.78;1.27;;;12.80;54.10;;;;;;4882809;29;20356;-83
2021/03/19 02:41:05;;;;;;;5.05;1.00;;;12.70;53.90;;;;;;4856466;29;20030;-80
2021/03/19 02:43:31;;;;;;;2.72;0.88;;;12.70;53.80;;;;;;4866154;29;20086;-81
2021/03/19 02:45:57;;;;;;;3.80;0.90;;;12.70;53.80;;;;;;4860055;29;20052;-80
2021/03/19 02:48:23;;;;;;;5.85;0.90;;;12.70;53.70;;;;;;4882869;29;20088;-80
2021/03/19 02:50:49;;;;;;;5.50;1.08;;;12.70;53.70;;;;;;4858766;29;20032;-83
2021/03/19 02:53:18;;;;;;;3.47;0.93;;;12.60;53.70;;;;;;4863831;29;20033;-81
2021/03/19 02:55:44;;;;;;;2.65;0.80;;;12.60;53.70;;;;;;4873661;29;20037;-82
2021/03/19 02:58:11;;;;;;;3.50;1.08;;;12.60;54.00;;;;;;4883066;29;20449;-82
2021/03/19 03:00:37;;;;;;;3.72;1.10;;;12.50;54.20;;;;;;4873760;29;20030;-82
2021/03/19 03:03:04;;;;;;;7.38;1.23;;;12.50;54.30;;;;;;4848010;29;20405;-81
2021/03/19 03:05:30;;;;;;;4.28;0.70;;;12.50;54.30;;;;;;4833460;29;20049;-81
2021/03/19 03:07:56;;;;;;;3.92;1.35;;;12.40;54.30;;;;;;4849096;29;20113;-82
2021/03/19 03:10:26;;;;;;;5.53;1.02;;;12.40;54.40;;;;;;4867876;29;20084;-81
2021/03/19 03:12:54;;;;;;;5.68;1.10;;;12.40;54.40;;;;;;4882261;29;20356;-82
2021/03/19 03:15:21;;;;;;;6.78;1.50;;;12.40;54.50;;;;;;4859661;29;20053;-81
2021/03/19 03:17:49;;;;;;;5.18;1.17;;;12.40;54.60;;;;;;4864017;29;20124;-82
2021/03/19 03:20:27;;;;;;;7.85;1.42;;;12.40;54.60;;;;;;4866222;29;20049;-81
2021/03/19 03:22:53;;;;;;;4.35;0.90;;;12.40;54.50;;;;;;4863374;29;20136;-81
2021/03/19 03:25:22;;;;;;;2.67;1.00;;;12.40;54.60;;;;;;4865361;29;20045;-81
2021/03/19 03:27:50;;;;;;;4.07;1.05;;;12.30;54.50;;;;;;4864390;29;20049;-81
2021/03/19 03:30:29;;;;;;;4.30;1.10;;;12.40;54.50;;;;;;4875073;29;20059;-82
2021/03/19 03:32:56;;;;;;;4.78;0.98;;;12.30;54.50;;;;;;4881765;29;20041;-81
2021/03/19 03:35:24;;;;;;;3.30;1.10;;;12.30;54.40;;;;;;4875052;29;20060;-81
2021/03/19 03:37:52;;;;;;;4.50;1.30;;;12.30;54.50;;;;;;4863802;29;20454;-81
2021/03/19 03:40:25;;;;;;;3.97;1.23;;;12.30;54.50;;;;;;4874936;29;20063;-83
2021/03/19 03:42:51;;;;;;;3.55;0.80;;;12.30;54.70;;;;;;4881412;29;20386;-83
2021/03/19 03:45:18;;;;;;;4.10;0.93;;;12.20;54.70;;;;;;4852732;29;20056;-82
2021/03/19 03:47:44;;;;;;;8.63;1.15;;;12.20;54.50;;;;;;4881601;29;20049;-81
2021/03/19 03:50:14;;;;;;;3.35;0.80;;;12.20;54.50;;;;;;4870276;29;20057;-81
2021/03/19 03:52:41;;;;;;;3.58;1.13;;;12.20;54.60;;;;;;4870440;29;20476;-81
2021/03/19 03:55:09;;;;;;;2.97;0.90;;;12.20;54.70;;;;;;4876565;29;20320;-83
2021/03/19 03:57:36;;;;;;;3.13;0.80;;;12.20;54.90;;;;;;4864196;29;20046;-82
2021/03/19 04:00:12;;;;;;;6.03;1.33;;;12.20;54.90;;;;;;4873022;29;20060;-81
2021/03/19 04:02:38;;;;;;;6.22;1.08;;;12.20;54.90;;;;;;4847788;29;20339;-81
2021/03/19 04:05:08;;;;;;;2.63;1.10;;;12.20;54.90;;;;;;4850625;29;20357;-81
2021/03/19 04:07:34;;;;;;;3.95;0.80;;;12.20;54.80;;;;;;4881273;29;20052;-82
2021/03/19 04:10:00;;;;;;;3.47;1.13;;;12.20;54.80;;;;;;4875093;29;20053;-80
2021/03/19 04:12:27;;;;;;;6.03;1.48;;;12.20;54.80;;;;;;4864028;29;20045;-82
2021/03/19 04:14:53;;;;;;;6.63;1.20;;;12.20;54.60;;;;;;4864303;29;20053;-82
2021/03/19 04:17:32;;;;;;;4.32;0.80;;;12.20;54.80;;;;;;4880876;29;20049;-82
2021/03/19 04:20:00;;;;;;;5.43;1.25;;;12.20;54.80;;;;;;4873497;29;20045;-80
2021/03/19 04:22:27;;;;;;;3.40;1.10;;;12.20;54.90;;;;;;4862335;29;20349;-80
2021/03/19 04:24:55;;;;;;;4.78;0.98;;;12.20;54.80;;;;;;4863226;29;20064;-80
2021/03/19 04:27:26;;;;;;;4.13;1.02;;;12.10;54.80;;;;;;4862372;29;20053;-80
2021/03/19 04:29:54;;;;;;;6.38;1.17;;;12.10;54.70;;;;;;4866417;29;20053;-81
2021/03/19 04:32:21;;;;;;;5.10;1.23;;;12.10;54.90;;;;;;4865566;29;20080;-80
2021/03/19 04:34:47;;;;;;;5.70;0.90;;;12.10;54.90;;;;;;4875626;29;20057;-83
2021/03/19 04:37:14;;;;;;;7.00;1.30;;;12.10;54.90;;;;;;4846923;29;20052;-82
2021/03/19 04:39:43;;;;;;;5.55;1.17;;;12.10;55.00;;;;;;4863170;29;20054;-81
2021/03/19 04:42:12;;;;;;;4.25;1.10;;;12.10;55.00;;;;;;4864346;29;20056;-82
2021/03/19 04:44:48;;;;;;;3.88;1.38;;;12.10;54.80;;;;;;4862726;29;20067;-83
2021/03/19 04:47:15;;;;;;;7.28;1.38;;;12.10;54.90;;;;;;4846673;29;20468;-81
2021/03/19 04:49:42;;;;;;;5.50;1.23;;;12.10;54.90;;;;;;4862845;29;20050;-81
2021/03/19 04:52:08;;;;;;;6.53;1.27;;;12.10;54.80;;;;;;4875249;29;20369;-80
2021/03/19 04:54:34;;;;;;;7.10;1.10;;;12.10;54.80;;;;;;4874055;29;20139;-81
2021/03/19 04:57:01;;;;;;;3.40;0.85;;;12.10;54.60;;;;;;4862198;29;20061;-82
2021/03/19 04:59:28;;;;;;;3.13;1.17;;;12.10;54.50;;;;;;4847288;29;20056;-83
2021/03/19 05:02:00;;;;;;;3.70;1.30;;;12.10;54.70;;;;;;4876298;29;20053;-81
2021/03/19 05:04:29;;;;;;;4.00;1.38;;;12.20;54.50;;;;;;4863409;29;20045;-81
2021/03/19 05:07:02;;;;;;;6.05;1.35;;;12.20;54.50;;;;;;4880996;29;20053;-82
2021/03/19 05:09:32;;;;;;;3.15;0.80;;;12.20;54.30;;;;;;4880540;29;20064;-81
2021/03/19 05:12:03;;;;;;;3.83;1.00;;;12.20;54.50;;;;;;4880368;29;20049;-82
2021/03/19 05:14:32;;;;;;;;;;;12.20;54.60;;;;;;4872837;29;20058;-81
2021/03/19 05:17:16;;;;;;;4.70;1.13;;;12.10;54.60;;;;;;4880953;29;19927;-80
2021/03/19 05:20:03;;;;;;;3.35;0.85;;;12.20;54.60;;;;;;4864431;29;20128;-77
2021/03/19 05:22:36;;;;;;;4.20;1.05;;;12.30;55.40;;;;;;4879696;29;20049;-80
2021/03/19 05:25:13;;;;;;;4.75;0.60;;;12.30;55.10;;;;;;4880504;29;20060;-87
2021/03/19 05:27:50;;;;;;;2.57;0.70;;;12.40;55.00;;;;;;4866064;29;20053;-77
2021/03/19 05:30:18;;;;;;;3.33;0.65;;;12.50;54.70;;;;;;4850366;29;20141;-82
2021/03/19 05:32:47;;;;;;;4.78;0.70;;;12.70;54.40;;;;;;4883921;29;20080;-77
2021/03/19 05:35:14;;;;;;;3.33;0.98;;;12.80;54.30;;;;;;4884311;29;20469;-79
2021/03/19 05:37:41;;;;;;;5.38;0.77;;;13.10;54.20;;;;;;4884420;29;20057;-80
2021/03/19 05:40:16;;;;;;;1.83;0.50;;;13.30;54.00;;;;;;4884774;29;20045;-82
2021/03/19 05:42:42;;;;;;;5.20;0.90;;;13.50;53.90;;;;;;4870263;29;20365;-80
2021/03/19 05:45:14;;;;;;;7.15;1.20;;;13.70;53.70;;;;;;4870571;29;20053;-80
2021/03/19 05:47:41;;;;;;;3.13;0.88;;;13.90;53.80;;;;;;4884431;29;20053;-82
2021/03/19 05:50:31;;;;;;;3.85;0.98;;;14.10;54.00;;;;;;4853482;29;20473;-81
2021/03/19 05:53:16;;;;;;;5.60;1.13;;;14.30;55.10;;;;;;4865026;29;20430;-85
2021/03/19 05:55:51;;;;;;;7.45;1.33;;;14.50;55.20;;;;;;4868271;29;20359;-83
2021/03/19 05:58:28;;;;;;;9.27;1.58;;;14.60;55.10;;;;;;4884003;29;20460;-80
2021/03/19 06:00:55;;;;;;;4.82;1.15;;;14.80;55.50;;;;;;4884385;29;20461;-80
2021/03/19 06:03:23;;;;;;;8.27;1.45;;;15.00;55.50;;;;;;4884093;29;20056;-78
2021/03/19 06:06:04;;;;;;;13.10;1.52;;;15.10;55.70;;;;;;4867442;29;20060;-79
2021/03/19 06:08:36;;;;;;;8.32;1.00;;;15.30;56.00;;;;;;4883855;29;20056;-79
2021/03/19 06:11:23;;;;;;;9.60;1.20;;;15.50;56.00;;;;;;4869856;29;20064;-79
2021/03/19 06:14:02;;;;;;;3.00;0.93;;;15.60;56.30;;;;;;4865628;29;20053;-74
2021/03/19 06:16:47;;;;;;;4.18;0.82;;;15.70;55.90;;;;;;4869383;29;20339;-73
2021/03/19 06:19:47;;;;;;;4.28;1.30;;;15.90;56.10;;;;;;4865484;29;20076;-73
2021/03/19 06:22:23;;;;;;;2.50;0.85;;;16.00;56.00;;;;;;4865349;29;20057;-75
2021/03/19 06:25:11;;;;;;;4.88;0.80;;;16.10;55.50;;;;;;4866299;29;20048;-74
2021/03/19 06:28:01;;;;;;;3.42;0.88;;;16.20;55.60;;;;;;4881285;29;20053;-79
2021/03/19 06:30:47;;;;;;;4.13;0.90;;;16.20;55.10;;;;;;4864227;29;20457;-76
2021/03/19 06:33:13;;;;;;;6.70;0.95;;;16.30;55.00;;;;;;4875014;29;20051;-84
2021/03/19 06:35:42;;;;;;;7.50;1.02;;;16.30;54.90;;;;;;4883574;29;20119;-81
2021/03/19 06:38:39;;;;;;;8.05;1.45;;;16.40;54.60;;;;;;4867992;29;20075;-84
2021/03/19 06:41:31;;;;;;;7.25;1.13;;;16.40;54.50;;;;;;4867746;29;20079;-82
2021/03/19 06:44:24;;;;;;;8.57;1.23;;;16.40;54.60;;;;;;4867706;29;20049;-82
2021/03/19 06:47:49;;;;;;;5.13;1.05;;;16.50;55.10;;;;;;4869963;29;20045;-83
2021/03/19 06:50:39;;;;;;;6.63;1.10;;;16.60;55.20;;;;;;4869670;29;20049;-83
2021/03/19 06:53:32;;;;;;;11.23;1.40;;;16.70;55.10;;;;;;4860671;29;20041;-79
2021/03/19 06:56:23;;;;;;;10.40;1.23;;;16.80;54.90;;;;;;4851994;29;20045;-79
2021/03/19 06:59:19;;;;;;;7.60;1.05;;;16.90;54.70;;;;;;4851395;29;20049;-80
2021/03/19 07:02:36;;;;;;;5.55;0.90;;;17.00;54.80;;;;;;4851141;29;20119;-80
2021/03/19 07:05:40;;;;;;;5.38;0.80;;;17.10;54.70;;;;;;4868939;29;20465;-78
2021/03/19 07:08:44;;;;;;;9.00;1.10;;;17.20;54.30;;;;;;4852660;29;20358;-78
2021/03/19 07:11:40;;;;;;;14.20;1.70;;;17.20;54.00;;;;;;4872210;29;20051;-81
2021/03/19 07:14:56;;;;;;;8.05;1.45;;;17.20;53.90;;;;;;4839032;29;20117;-79
2021/03/19 07:17:57;;;;;;;7.18;1.60;;;17.20;53.50;;;;;;4863546;29;20053;-81
2021/03/19 07:20:35;;;;;;;6.05;1.00;;;17.20;53.10;;;;;;4863516;29;20481;-80
2021/03/19 07:23:29;;;;;;;7.45;1.45;;;17.20;52.90;;;;;;4866685;29;20059;-79
2021/03/19 07:26:22;;;;;;;16.77;1.98;;;17.30;52.70;;;;;;4864136;29;20160;-80
2021/03/19 07:29:37;;;;;;;3.65;0.93;;;17.30;52.60;;;;;;4852975;29;20080;-79
2021/03/19 07:32:20;;;;;;;9.13;1.33;;;17.30;52.50;;;;;;4863678;29;20113;-82
2021/03/19 07:35:15;;;;;;;7.25;1.38;;;17.30;52.40;;;;;;4873682;29;20048;-81
2021/03/19 07:38:26;;;;;;;3.58;0.88;;;17.20;52.60;;;;;;4860155;29;20052;-80
2021/03/19 07:41:27;;;;;;;5.75;1.10;;;17.10;52.80;;;;;;4860049;29;20037;-82
2021/03/19 07:44:41;;;;;;;4.88;1.13;;;17.00;53.00;;;;;;4857343;29;20414;-81
2021/03/19 07:47:43;;;;;;;3.72;0.80;;;16.90;53.20;;;;;;4850317;29;20052;-81
2021/03/19 07:50:44;;;;;;;5.03;0.75;;;16.80;53.40;;;;;;4862410;29;20445;-79
2021/03/19 07:53:57;;;;;;;4.35;0.73;;;16.70;53.50;;;;;;4863124;29;20085;-81
2021/03/19 07:57:01;;;;;;;4.95;1.00;;;16.60;53.60;;;;;;4850195;29;20045;-80
2021/03/19 08:00:10;;;;;;;7.63;1.65;;;16.50;53.80;;;;;;4850376;29;20037;-80
2021/03/19 08:03:23;;;;;;;2.67;1.05;;;16.30;52.10;;;;;;4860683;29;20041;-79
2021/03/19 08:06:18;;;;;;;3.20;0.90;;;16.20;53.10;;;;;;4868233;29;20055;-81
2021/03/19 08:09:26;;;;;;;30.95;2.42;;;16.10;53.30;;;;;;4868562;29;20055;-80
2021/03/19 08:12:22;;;;;;;4.00;0.77;;;16.10;54.00;;;;;;4868643;29;20052;-80
2021/03/19 08:15:24;;;;;;;3.60;0.90;;;16.20;53.40;;;;;;4874765;29;20358;-80
2021/03/19 08:18:09;;;;;;;6.90;1.13;;;16.30;53.40;;;;;;4874862;29;20059;-80
2021/03/19 08:21:14;;;;;;;5.68;1.00;;;16.40;53.50;;;;;;4868229;29;20056;-79
2021/03/19 08:24:25;;;;;;;4.43;0.95;;;16.40;53.40;;;;;;4881083;29;20041;-81
2021/03/19 08:27:36;;;;;;;3.78;0.88;;;16.50;53.40;;;;;;4869042;29;20469;-80
2021/03/19 08:30:41;;;;;;;2.78;0.80;;;16.60;53.30;;;;;;4868163;29;20108;-82
2021/03/19 08:33:26;;;;;;;;;;;16.70;53.30;;;;;;4868531;29;20127;-81
2021/03/19 08:36:21;;;;;;;4.13;0.90;;;16.70;53.20;;;;;;4867733;29;19922;-79
2021/03/19 08:39:33;;;;;;;3.30;1.23;;;16.80;53.20;;;;;;4868351;29;20048;-79
2021/03/19 08:42:42;;;;;;;8.65;0.88;;;16.80;53.00;;;;;;4867697;29;20045;-80
2021/03/19 08:45:30;;;;;;;3.80;0.80;;;16.90;53.20;;;;;;4880952;29;20057;-80
2021/03/19 08:48:16;;;;;;;3.33;0.55;;;16.90;53.40;;;;;;4868138;29;20049;-78
2021/03/19 08:51:14;;;;;;;4.70;0.63;;;16.90;53.30;;;;;;4881364;29;20350;-79
2021/03/19 08:54:15;;;;;;;6.72;1.25;;;16.90;53.00;;;;;;4854829;29;20088;-74
2021/03/19 08:57:04;;;;;;;2.55;1.02;;;16.90;52.50;;;;;;4880546;29;20479;-77
2021/03/19 08:59:52;;;;;;;3.72;0.90;;;16.90;52.40;;;;;;4867275;29;20576;-77
2021/03/19 09:02:53;;;;;;;4.20;0.73;;;16.90;52.20;;;;;;4867874;29;20076;-77
2021/03/19 09:05:25;;;;;;;6.47;1.30;;;17.00;52.30;;;;;;4881005;29;20065;-79
2021/03/19 09:08:09;;;;;;;2.72;1.10;;;16.90;52.20;;;;;;4880852;29;20053;-77
2021/03/19 09:11:00;;;;;;;5.53;0.80;;;16.90;51.90;;;;;;4867768;29;20076;-78
2021/03/19 09:13:26;;;;;;;5.43;1.00;;;16.80;51.80;;;;;;4880560;29;20053;-78
2021/03/19 09:15:55;;;;;;;3.08;0.93;;;16.80;51.80;;;;;;4881082;29;20041;-77
2021/03/19 09:18:47;;;;;;;4.78;0.98;;;16.70;51.70;;;;;;4879987;29;20360;-79
2021/03/19 09:21:38;;;;;;;4.10;0.70;;;16.70;51.70;;;;;;4867863;29;20045;-78
2021/03/19 09:24:24;;;;;;;2.03;0.50;;;16.70;52.00;;;;;;4867550;29;20056;-78
2021/03/19 09:27:33;;;;;;;2.30;0.77;;;16.60;52.40;;;;;;4867742;29;20125;-78
2021/03/19 09:30:22;;;;;;;3.35;0.88;;;16.60;52.80;;;;;;4867473;29;20049;-79
2021/03/19 09:33:43;;;;;;;4.28;0.98;;;16.60;53.10;;;;;;4867188;29;20053;-77
2021/03/19 09:37:08;;;;;;;3.50;0.63;;;16.60;53.30;;;;;;4848130;29;20143;-79
2021/03/19 09:40:00;;;;;;;;;;;16.50;53.50;;;;;;4867924;29;20049;-78
2021/03/19 09:42:27;;;;;;;2.47;0.55;;;16.50;53.50;;;;;;4880786;29;19920;-78
2021/03/19 09:44:59;;;;;;;3.63;0.82;;;16.50;54.00;;;;;;4880548;29;20060;-79
2021/03/19 09:47:45;;;;;;;2.63;0.77;;;16.40;54.10;;;;;;4880641;29;20058;-77
2021/03/19 09:50:34;;;;;;;3.15;0.40;;;16.40;54.10;;;;;;4863960;29;20479;-78
2021/03/19 09:53:00;;;;;;;3.03;0.70;;;16.40;54.20;;;;;;4874056;29;20045;-77
2021/03/19 09:55:55;;;;;;;2.78;0.55;;;16.40;54.40;;;;;;4867177;29;20056;-78
2021/03/19 09:58:38;;;;;;;2.25;0.55;;;16.30;54.40;;;;;;4880516;29;20468;-77
2021/03/19 10:01:24;;;;;;;3.20;0.60;;;16.30;54.50;;;;;;4880745;29;20053;-77
2021/03/19 10:03:54;;;;;;;2.97;0.57;;;16.30;54.50;;;;;;4880694;29;20064;-80
2021/03/19 10:06:46;;;;;;;1.13;0.45;;;16.20;54.50;;;;;;4867324;29;20326;-79
2021/03/19 10:09:53;;;;;;;1.73;0.40;;;16.20;54.60;;;;;;4866803;29;20085;-76
2021/03/19 10:12:38;;;;;;;1.90;0.60;;;16.20;54.70;;;;;;4868620;29;20049;-74
2021/03/19 10:15:27;;;;;;;4.63;1.10;;;16.10;54.50;;;;;;4883399;29;20124;-74
2021/03/19 10:18:41;;;;;;;4.57;1.10;;;16.10;53.00;;;;;;4870381;29;20445;-75
2021/03/19 10:21:41;;;;;;;2.35;1.10;;;16.00;53.40;;;;;;4866719;29;20056;-76
2021/03/19 10:24:27;;;;;;;3.75;0.93;;;15.90;51.60;;;;;;4866528;29;20044;-74
2021/03/19 10:27:12;;;;;;;0.90;0.43;;;15.90;52.00;;;;;;4884044;29;20355;-76
2021/03/19 10:30:00;;;;;;;;;;;15.80;53.00;;;;;;4871407;29;20045;-73
2021/03/19 10:32:47;;;;;;;1.92;0.60;;;15.80;53.30;;;;;;4869870;29;20350;-75
2021/03/19 10:35:20;;;;;;;2.47;0.65;;;15.80;53.40;;;;;;4883943;29;20112;-74
2021/03/19 10:38:09;;;;;;;0.98;0.50;;;15.80;53.30;;;;;;4870925;29;20049;-74
2021/03/19 10:41:02;;;;;;;2.00;0.40;;;15.80;53.30;;;;;;4870451;29;20084;-76
2021/03/19 10:43:46;;;;;;;1.92;0.60;;;15.90;53.50;;;;;;4883993;29;20048;-76
2021/03/19 10:46:18;;;;;;;;;;;15.90;53.50;;;;;;4883358;29;20057;-76
2021/03/19 10:48:52;;;;;;;3.08;0.70;;;15.90;53.60;;;;;;4883386;29;19920;-75
2021/03/19 10:52:08;;;;;;;2.25;0.40;;;15.90;53.70;;;;;;4869750;29;20560;-74
2021/03/19 10:54:39;;;;;;;1.55;0.50;;;15.90;53.80;;;;;;4883913;29;20053;-76
2021/03/19 10:57:25;;;;;;;0.82;0.35;;;15.90;53.90;;;;;;4883421;29;20431;-76
2021/03/19 10:59:52;;;;;;;1.02;0.32;;;15.90;53.90;;;;;;4883606;29;20068;-77
2021/03/19 11:02:24;;;;;;;0.95;0.20;;;15.90;54.00;;;;;;4883513;29;20049;-75
2021/03/19 11:04:58;;;;;;;1.25;0.28;;;15.90;54.00;;;;;;4883441;29;20061;-75
2021/03/19 11:07:45;;;;;;;1.38;0.55;;;15.90;54.20;;;;;;4869945;29;20045;-76
2021/03/19 11:10:19;;;;;;;1.67;0.30;;;15.90;54.20;;;;;;4883301;29;20047;-76
2021/03/19 11:13:19;;;;;;;2.08;0.47;;;15.80;54.50;;;;;;4880872;29;20049;-75
2021/03/19 11:15:48;;;;;;;3.55;0.70;;;15.80;54.20;;;;;;4882862;29;20472;-74
2021/03/19 11:18:26;;;;;;;1.23;0.47;;;15.80;53.90;;;;;;4883319;29;20054;-75
2021/03/19 11:21:07;;;;;;;2.50;0.68;;;15.80;53.70;;;;;;4882874;29;20112;-77
2021/03/19 11:23:36;;;;;;;1.75;0.40;;;15.80;53.60;;;;;;4883012;29;20041;-75
2021/03/19 11:26:28;;;;;;;1.33;0.40;;;15.80;53.70;;;;;;4882268;29;20412;-73
2021/03/19 11:29:15;;;;;;;2.17;0.45;;;15.80;53.80;;;;;;4869323;29;20073;-73
2021/03/19 11:32:12;;;;;;;1.05;0.60;;;15.80;53.80;;;;;;4883484;29;20041;-75
2021/03/19 11:34:43;;;;;;;1.13;0.40;;;15.80;53.90;;;;;;4882714;29;20045;-75
2021/03/19 11:37:34;;;;;;;1.23;0.35;;;15.80;54.00;;;;;;4882302;29;20080;-73
2021/03/19 11:40:20;;;;;;;1.17;0.30;;;15.80;54.00;;;;;;4869728;29;20052;-75
2021/03/19 11:42:52;;;;;;;1.10;0.50;;;15.80;54.00;;;;;;4882748;29;20049;-77
2021/03/19 11:45:28;;;;;;;1.40;0.40;;;15.70;53.70;;;;;;4882500;29;20061;-80
2021/03/19 11:47:58;;;;;;;4.07;0.50;;;15.70;53.30;;;;;;4882412;29;20456;-77
2021/03/19 11:50:32;;;;;;;3.08;0.52;;;15.70;53.20;;;;;;4882803;29;20045;-77
2021/03/19 11:53:16;;;;;;;4.25;0.50;;;15.70;53.30;;;;;;4883212;29;20052;-78
2021/03/19 11:55:48;;;;;;;4.43;0.30;;;15.70;53.40;;;;;;4882517;29;20044;-79
2021/03/19 11:58:16;;;;;;;2.35;0.65;;;15.60;54.50;;;;;;4882403;29;20341;-78
2021/03/19 12:01:07;;;;;;;5.50;0.50;;;15.60;54.50;;;;;;4868763;29;20120;-76
2021/03/19 12:03:53;;;;;;;8.77;1.27;;;15.60;54.40;;;;;;4868030;29;20552;-79
2021/03/19 12:06:24;;;;;;;9.35;0.75;;;15.60;54.30;;;;;;4882065;29;20049;-77
2021/03/19 12:08:50;;;;;;;7.18;0.55;;;15.60;54.10;;;;;;4881785;29;20053;-76
2021/03/19 12:11:48;;;;;;;9.13;0.93;;;15.60;53.90;;;;;;4882054;29;20045;-78
2021/03/19 12:14:22;;;;;;;5.05;0.55;;;15.60;53.70;;;;;;4860743;29;20052;-78
2021/03/19 12:17:11;;;;;;;12.30;0.60;;;15.60;53.90;;;;;;4868553;29;20053;-79
2021/03/19 12:19:37;;;;;;;2.97;0.50;;;15.60;53.90;;;;;;4881659;29;20044;-79
2021/03/19 12:22:03;;;;;;;3.65;0.73;;;15.60;53.90;;;;;;4881544;29;20124;-77
2021/03/19 12:24:28;;;;;;;6.82;0.50;;;15.60;53.80;;;;;;4881441;29;20052;-77
2021/03/19 12:27:19;;;;;;;2.85;0.50;;;15.60;53.80;;;;;;4881217;29;20045;-75
2021/03/19 12:29:45;;;;;;;5.05;0.40;;;15.60;54.20;;;;;;4881415;29;20060;-78
2021/03/19 12:32:11;;;;;;;1.27;0.40;;;15.60;52.90;;;;;;4882123;29;20045;-74
2021/03/19 12:34:37;;;;;;;2.55;0.20;;;15.50;52.40;;;;;;4881260;29;20472;-74
2021/03/19 12:37:03;;;;;;;4.85;0.30;;;15.50;52.90;;;;;;4881716;29;20112;-74
2021/03/19 12:39:32;;;;;;;3.13;0.40;;;15.50;53.40;;;;;;4881774;29;20128;-74
2021/03/19 12:41:58;;;;;;;1.85;0.30;;;15.50;53.40;;;;;;4881553;29;20041;-74
2021/03/19 12:44:24;;;;;;;2.70;0.30;;;15.40;53.50;;;;;;4881286;29;20044;-76
2021/03/19 12:46:52;;;;;;;5.10;0.75;;;15.40;53.50;;;;;;4864990;29;20045;-74
2021/03/19 12:49:18;;;;;;;5.53;0.75;;;15.50;53.20;;;;;;4881212;29;20060;-74
2021/03/19 12:51:44;;;;;;;1.40;0.25;;;15.50;53.00;;;;;;4881556;29;20044;-74
2021/03/19 12:54:10;;;;;;;1.67;0.30;;;15.50;52.80;;;;;;4881760;29;20389;-74
2021/03/19 12:56:36;;;;;;;2.58;0.30;;;15.50;52.80;;;;;;4881587;29;20084;-74
2021/03/19 12:59:26;;;;;;;4.85;0.30;;;15.50;52.70;;;;;;4880365;29;20041;-74
2021/03/19 13:01:52;;;;;;;1.95;0.52;;;15.50;52.80;;;;;;4881767;29;20052;-74
2021/03/19 13:04:18;;;;;;;0.85;0.20;;;15.50;52.80;;;;;;4881548;29;20437;-75
2021/03/19 13:06:43;;;;;;;3.05;0.25;;;15.50;52.80;;;;;;4881053;29;20052;-76
2021/03/19 13:09:12;;;;;;;1.40;0.38;;;15.50;52.80;;;;;;4881186;29;20053;-74
2021/03/19 13:11:38;;;;;;;2.42;0.50;;;15.50;52.70;;;;;;4881121;29;20053;-74
2021/03/19 13:14:04;;;;;;;0.50;0.10;;;15.50;52.70;;;;;;4880981;29;20047;-74
2021/03/19 13:16:30;;;;;;;1.52;0.22;;;15.50;52.80;;;;;;4881343;29;20045;-74
2021/03/19 13:18:56;;;;;;;0.68;0.20;;;15.60;52.90;;;;;;4880611;29;20084;-74
2021/03/19 13:21:22;;;;;;;0.90;0.30;;;15.60;52.80;;;;;;4881645;29;20449;-74
2021/03/19 13:24:08;;;;;;;1.52;0.28;;;15.60;52.90;;;;;;4880468;29;20049;-74
2021/03/19 13:26:34;;;;;;;1.75;0.30;;;15.50;52.90;;;;;;4881012;29;20119;-74
2021/03/19 13:29:03;;;;;;;0.80;0.10;;;15.50;52.90;;;;;;4880888;29;20049;-74
2021/03/19 13:31:28;;;;;;;2.60;0.30;;;15.60;53.00;;;;;;4881054;29;20052;-74
2021/03/19 13:33:54;;;;;;;0.77;0.17;;;15.60;53.00;;;;;;4881195;29;20056;-74
2021/03/19 13:36:40;;;;;;;1.85;0.20;;;15.50;53.00;;;;;;4880944;29;20071;-76
2021/03/19 13:39:09;;;;;;;0.65;0.10;;;15.50;53.10;;;;;;4881169;29;20041;-73
2021/03/19 13:41:37;;;;;;;1.50;0.20;;;15.60;53.20;;;;;;4881186;29;20059;-74
2021/03/19 13:44:07;;;;;;;1.90;0.57;;;15.60;53.30;;;;;;4880721;29;20439;-74
2021/03/19 13:46:34;;;;;;;0.95;0.20;;;15.50;53.30;;;;;;4880948;29;20053;-75
2021/03/19 13:49:01;;;;;;;2.03;0.10;;;15.50;53.30;;;;;;4884640;29;20088;-74
2021/03/19 13:51:27;;;;;;;0.90;0.10;;;15.50;53.30;;;;;;4884620;29;20349;-75